sensor_id;sensor_type;location;lat;lon;timestamp;temperature;humidity
72883;DHT22;61017;37.812;-122.286;2023-02-23T00:01:32;13.20;59.60
72883;DHT22;61017;37.812;-122.286;2023-02-23T00:03:24;13.20;59.50
72883;DHT22;61017;37.812;-122.286;2023-02-23T00:05:16;13.20;59.50
72883;DHT22;61017;37.812;-122.286;2023-02-23T00:07:07;13.20;59.60
72883;DHT22;61017;37.812;-122.286;2023-02-23T00:08:58;13.20;59.50
72883;DHT22;61017;37.812;-122.286;2023-02-23T00:10:50;13.20;59.60
72883;DHT22;61017;37.812;-122.286;2023-02-23T00:12:41;13.20;59.30
72883;DHT22;61017;37.812;-122.286;2023-02-23T00:14:33;13.20;59.20
72883;DHT22;61017;37.812;-122.286;2023-02-23T00:16:25;13.20;59.50
72883;DHT22;61017;37.812;-122.286;2023-02-23T00:18:16;13.20;59.30
72883;DHT22;61017;37.812;-122.286;2023-02-23T00:20:09;13.20;59.20
72883;DHT22;61017;37.812;-122.286;2023-02-23T00:22:00;13.20;58.80
72883;DHT22;61017;37.812;-122.286;2023-02-23T00:23:55;13.20;58.80
72883;DHT22;61017;37.812;-122.286;2023-02-23T00:25:46;13.20;59.40
72883;DHT22;61017;37.812;-122.286;2023-02-23T00:27:38;13.20;59.40
72883;DHT22;61017;37.812;-122.286;2023-02-23T00:29:29;13.20;59.00
72883;DHT22;61017;37.812;-122.286;2023-02-23T00:31:23;13.20;59.20
72883;DHT22;61017;37.812;-122.286;2023-02-23T00:33:15;13.20;59.30
72883;DHT22;61017;37.812;-122.286;2023-02-23T00:35:08;13.20;59.00
72883;DHT22;61017;37.812;-122.286;2023-02-23T00:37:00;13.20;58.60
72883;DHT22;61017;37.812;-122.286;2023-02-23T00:38:52;13.10;58.50
72883;DHT22;61017;37.812;-122.286;2023-02-23T00:40:44;13.20;59.20
72883;DHT22;61017;37.812;-122.286;2023-02-23T00:42:35;13.10;59.20
72883;DHT22;61017;37.812;-122.286;2023-02-23T00:44:27;13.10;59.20
72883;DHT22;61017;37.812;-122.286;2023-02-23T00:46:18;13.10;59.30
72883;DHT22;61017;37.812;-122.286;2023-02-23T00:48:09;13.10;59.20
72883;DHT22;61017;37.812;-122.286;2023-02-23T00:50:01;13.20;59.40
72883;DHT22;61017;37.812;-122.286;2023-02-23T00:51:52;13.20;59.30
72883;DHT22;61017;37.812;-122.286;2023-02-23T00:53:44;13.20;59.40
72883;DHT22;61017;37.812;-122.286;2023-02-23T00:55:36;13.20;59.50
72883;DHT22;61017;37.812;-122.286;2023-02-23T00:57:30;13.10;59.60
72883;DHT22;61017;37.812;-122.286;2023-02-23T00:59:22;13.20;59.40
72883;DHT22;61017;37.812;-122.286;2023-02-23T01:01:13;13.20;59.50
72883;DHT22;61017;37.812;-122.286;2023-02-23T01:03:07;13.20;59.50
72883;DHT22;61017;37.812;-122.286;2023-02-23T01:04:59;13.10;59.50
72883;DHT22;61017;37.812;-122.286;2023-02-23T01:06:50;13.20;59.50
72883;DHT22;61017;37.812;-122.286;2023-02-23T01:08:42;13.20;59.60
72883;DHT22;61017;37.812;-122.286;2023-02-23T01:10:40;13.10;59.70
72883;DHT22;61017;37.812;-122.286;2023-02-23T01:12:32;13.10;59.60
72883;DHT22;61017;37.812;-122.286;2023-02-23T01:14:23;13.20;59.60
72883;DHT22;61017;37.812;-122.286;2023-02-23T01:16:15;13.20;59.70
72883;DHT22;61017;37.812;-122.286;2023-02-23T01:18:07;13.20;59.50
72883;DHT22;61017;37.812;-122.286;2023-02-23T01:19:58;13.20;59.70
72883;DHT22;61017;37.812;-122.286;2023-02-23T01:21:50;13.20;59.70
72883;DHT22;61017;37.812;-122.286;2023-02-23T01:23:41;13.20;59.60
72883;DHT22;61017;37.812;-122.286;2023-02-23T01:25:33;13.10;59.70
72883;DHT22;61017;37.812;-122.286;2023-02-23T01:27:24;13.20;59.80
72883;DHT22;61017;37.812;-122.286;2023-02-23T01:29:16;13.20;59.90
72883;DHT22;61017;37.812;-122.286;2023-02-23T01:31:08;13.10;59.70
72883;DHT22;61017;37.812;-122.286;2023-02-23T01:32:59;13.20;60.70
72883;DHT22;61017;37.812;-122.286;2023-02-23T01:34:51;13.20;59.80
72883;DHT22;61017;37.812;-122.286;2023-02-23T01:36:43;13.20;59.80
72883;DHT22;61017;37.812;-122.286;2023-02-23T01:38:36;13.20;59.90
72883;DHT22;61017;37.812;-122.286;2023-02-23T01:40:27;13.10;59.90
72883;DHT22;61017;37.812;-122.286;2023-02-23T01:42:18;13.20;59.90
72883;DHT22;61017;37.812;-122.286;2023-02-23T01:46:04;13.20;60.00
72883;DHT22;61017;37.812;-122.286;2023-02-23T01:47:59;13.20;60.10
72883;DHT22;61017;37.812;-122.286;2023-02-23T01:49:51;13.20;60.10
72883;DHT22;61017;37.812;-122.286;2023-02-23T01:51:45;13.20;60.10
72883;DHT22;61017;37.812;-122.286;2023-02-23T01:53:39;13.20;60.10
72883;DHT22;61017;37.812;-122.286;2023-02-23T01:55:32;13.20;60.30
72883;DHT22;61017;37.812;-122.286;2023-02-23T01:57:23;13.20;60.00
72883;DHT22;61017;37.812;-122.286;2023-02-23T01:59:15;13.20;60.10
72883;DHT22;61017;37.812;-122.286;2023-02-23T02:01:07;13.20;60.00
72883;DHT22;61017;37.812;-122.286;2023-02-23T02:02:59;13.20;60.30
72883;DHT22;61017;37.812;-122.286;2023-02-23T02:04:51;13.20;60.30
72883;DHT22;61017;37.812;-122.286;2023-02-23T02:06:44;13.20;60.30
72883;DHT22;61017;37.812;-122.286;2023-02-23T02:08:36;13.20;60.30
72883;DHT22;61017;37.812;-122.286;2023-02-23T02:10:27;13.20;60.20
72883;DHT22;61017;37.812;-122.286;2023-02-23T02:12:19;13.20;60.20
72883;DHT22;61017;37.812;-122.286;2023-02-23T02:14:21;13.20;60.50
72883;DHT22;61017;37.812;-122.286;2023-02-23T02:18:34;13.20;60.50
72883;DHT22;61017;37.812;-122.286;2023-02-23T02:20:45;13.20;60.50
72883;DHT22;61017;37.812;-122.286;2023-02-23T02:22:43;13.20;60.50
72883;DHT22;61017;37.812;-122.286;2023-02-23T02:35:41;13.20;60.50
72883;DHT22;61017;37.812;-122.286;2023-02-23T02:37:48;13.20;60.60
72883;DHT22;61017;37.812;-122.286;2023-02-23T02:40:00;13.20;60.70
72883;DHT22;61017;37.812;-122.286;2023-02-23T02:44:06;13.20;60.60
72883;DHT22;61017;37.812;-122.286;2023-02-23T02:49:57;13.20;60.70
72883;DHT22;61017;37.812;-122.286;2023-02-23T02:53:49;13.20;60.60
72883;DHT22;61017;37.812;-122.286;2023-02-23T02:55:41;13.20;60.50
72883;DHT22;61017;37.812;-122.286;2023-02-23T02:57:33;13.20;60.10
72883;DHT22;61017;37.812;-122.286;2023-02-23T02:59:25;13.10;60.30
72883;DHT22;61017;37.812;-122.286;2023-02-23T03:01:18;13.20;60.80
72883;DHT22;61017;37.812;-122.286;2023-02-23T03:05:39;13.20;60.30
72883;DHT22;61017;37.812;-122.286;2023-02-23T03:10:04;13.20;60.40
72883;DHT22;61017;37.812;-122.286;2023-02-23T03:11:58;13.20;60.20
72883;DHT22;61017;37.812;-122.286;2023-02-23T03:17:44;13.20;60.60
72883;DHT22;61017;37.812;-122.286;2023-02-23T03:19:39;13.20;60.10
72883;DHT22;61017;37.812;-122.286;2023-02-23T03:21:51;13.20;59.80
72883;DHT22;61017;37.812;-122.286;2023-02-23T03:24:48;13.10;59.70
72883;DHT22;61017;37.812;-122.286;2023-02-23T03:28:12;13.10;59.80
72883;DHT22;61017;37.812;-122.286;2023-02-23T03:30:10;13.10;59.90
72883;DHT22;61017;37.812;-122.286;2023-02-23T03:34:14;13.10;60.40
72883;DHT22;61017;37.812;-122.286;2023-02-23T03:36:24;13.10;60.60
72883;DHT22;61017;37.812;-122.286;2023-02-23T03:39:00;13.10;60.60
72883;DHT22;61017;37.812;-122.286;2023-02-23T03:40:33;13.10;60.60
72883;DHT22;61017;37.812;-122.286;2023-02-23T03:42:27;13.10;60.60
72883;DHT22;61017;37.812;-122.286;2023-02-23T03:44:23;13.10;60.60
72883;DHT22;61017;37.812;-122.286;2023-02-23T03:46:17;13.20;60.70
72883;DHT22;61017;37.812;-122.286;2023-02-23T03:48:10;13.20;60.80
72883;DHT22;61017;37.812;-122.286;2023-02-23T03:50:03;13.20;60.70
72883;DHT22;61017;37.812;-122.286;2023-02-23T03:52:01;13.10;60.70
72883;DHT22;61017;37.812;-122.286;2023-02-23T03:54:05;13.10;60.60
72883;DHT22;61017;37.812;-122.286;2023-02-23T03:55:59;13.10;60.60
72883;DHT22;61017;37.812;-122.286;2023-02-23T03:57:51;13.20;60.60
72883;DHT22;61017;37.812;-122.286;2023-02-23T03:59:57;13.20;60.80
72883;DHT22;61017;37.812;-122.286;2023-02-23T04:01:50;13.20;60.60
72883;DHT22;61017;37.812;-122.286;2023-02-23T04:03:43;13.20;60.80
72883;DHT22;61017;37.812;-122.286;2023-02-23T04:05:36;13.20;60.10
72883;DHT22;61017;37.812;-122.286;2023-02-23T04:07:28;13.10;60.20
72883;DHT22;61017;37.812;-122.286;2023-02-23T04:09:20;13.10;60.70
72883;DHT22;61017;37.812;-122.286;2023-02-23T04:11:16;13.10;60.70
72883;DHT22;61017;37.812;-122.286;2023-02-23T04:13:17;13.20;60.90
72883;DHT22;61017;37.812;-122.286;2023-02-23T04:15:21;13.10;60.90
72883;DHT22;61017;37.812;-122.286;2023-02-23T04:17:14;13.10;60.90
72883;DHT22;61017;37.812;-122.286;2023-02-23T04:19:06;13.20;61.10
72883;DHT22;61017;37.812;-122.286;2023-02-23T04:20:57;13.20;61.10
72883;DHT22;61017;37.812;-122.286;2023-02-23T04:22:49;13.20;61.00
72883;DHT22;61017;37.812;-122.286;2023-02-23T04:24:40;13.10;61.00
72883;DHT22;61017;37.812;-122.286;2023-02-23T04:26:32;13.10;60.80
72883;DHT22;61017;37.812;-122.286;2023-02-23T04:28:24;13.20;61.00
72883;DHT22;61017;37.812;-122.286;2023-02-23T04:30:22;13.20;61.10
72883;DHT22;61017;37.812;-122.286;2023-02-23T04:32:14;13.20;61.10
72883;DHT22;61017;37.812;-122.286;2023-02-23T04:34:06;13.20;61.00
72883;DHT22;61017;37.812;-122.286;2023-02-23T04:35:58;13.20;61.10
72883;DHT22;61017;37.812;-122.286;2023-02-23T04:37:52;13.20;61.10
72883;DHT22;61017;37.812;-122.286;2023-02-23T04:39:43;13.20;61.20
72883;DHT22;61017;37.812;-122.286;2023-02-23T04:41:35;13.20;61.30
72883;DHT22;61017;37.812;-122.286;2023-02-23T04:43:26;13.20;61.30
72883;DHT22;61017;37.812;-122.286;2023-02-23T04:45:18;13.10;61.30
72883;DHT22;61017;37.812;-122.286;2023-02-23T04:47:10;13.20;61.30
72883;DHT22;61017;37.812;-122.286;2023-02-23T04:49:01;13.10;61.20
72883;DHT22;61017;37.812;-122.286;2023-02-23T04:50:53;13.10;61.30
72883;DHT22;61017;37.812;-122.286;2023-02-23T04:52:44;13.20;61.40
72883;DHT22;61017;37.812;-122.286;2023-02-23T04:54:38;13.10;61.40
72883;DHT22;61017;37.812;-122.286;2023-02-23T04:56:30;13.10;61.30
72883;DHT22;61017;37.812;-122.286;2023-02-23T04:58:21;13.10;61.30
72883;DHT22;61017;37.812;-122.286;2023-02-23T05:00:13;13.20;61.50
72883;DHT22;61017;37.812;-122.286;2023-02-23T05:02:05;13.10;61.30
72883;DHT22;61017;37.812;-122.286;2023-02-23T05:03:56;13.20;61.40
72883;DHT22;61017;37.812;-122.286;2023-02-23T05:05:48;13.20;61.60
72883;DHT22;61017;37.812;-122.286;2023-02-23T05:07:42;13.10;61.60
72883;DHT22;61017;37.812;-122.286;2023-02-23T05:09:33;13.20;61.60
72883;DHT22;61017;37.812;-122.286;2023-02-23T05:11:24;13.10;61.60
72883;DHT22;61017;37.812;-122.286;2023-02-23T05:13:16;13.20;61.70
72883;DHT22;61017;37.812;-122.286;2023-02-23T05:15:07;13.20;61.60
72883;DHT22;61017;37.812;-122.286;2023-02-23T05:16:59;13.20;61.80
72883;DHT22;61017;37.812;-122.286;2023-02-23T05:18:50;13.20;61.70
72883;DHT22;61017;37.812;-122.286;2023-02-23T05:20:42;13.20;61.60
72883;DHT22;61017;37.812;-122.286;2023-02-23T05:22:34;13.10;61.70
72883;DHT22;61017;37.812;-122.286;2023-02-23T05:24:25;13.20;61.90
72883;DHT22;61017;37.812;-122.286;2023-02-23T05:26:16;13.20;61.70
72883;DHT22;61017;37.812;-122.286;2023-02-23T05:28:08;13.20;61.90
72883;DHT22;61017;37.812;-122.286;2023-02-23T05:29:59;13.20;61.80
72883;DHT22;61017;37.812;-122.286;2023-02-23T05:31:50;13.20;61.80
72883;DHT22;61017;37.812;-122.286;2023-02-23T05:33:42;13.20;61.80
72883;DHT22;61017;37.812;-122.286;2023-02-23T05:35:38;13.20;61.40
72883;DHT22;61017;37.812;-122.286;2023-02-23T05:37:29;13.20;61.60
72883;DHT22;61017;37.812;-122.286;2023-02-23T05:39:20;13.20;62.50
72883;DHT22;61017;37.812;-122.286;2023-02-23T05:41:13;13.20;61.70
72883;DHT22;61017;37.812;-122.286;2023-02-23T05:43:09;13.20;61.40
72883;DHT22;61017;37.812;-122.286;2023-02-23T05:45:00;13.20;61.00
72883;DHT22;61017;37.812;-122.286;2023-02-23T05:46:51;13.10;62.30
72883;DHT22;61017;37.812;-122.286;2023-02-23T05:48:43;13.10;60.70
72883;DHT22;61017;37.812;-122.286;2023-02-23T05:50:34;13.10;60.90
72883;DHT22;61017;37.812;-122.286;2023-02-23T05:52:26;13.10;61.60
72883;DHT22;61017;37.812;-122.286;2023-02-23T05:54:20;13.10;61.50
72883;DHT22;61017;37.812;-122.286;2023-02-23T05:56:12;13.10;61.30
72883;DHT22;61017;37.812;-122.286;2023-02-23T05:58:04;13.10;60.90
72883;DHT22;61017;37.812;-122.286;2023-02-23T05:59:55;13.10;60.70
72883;DHT22;61017;37.812;-122.286;2023-02-23T06:01:46;13.10;60.70
72883;DHT22;61017;37.812;-122.286;2023-02-23T06:03:41;13.10;60.90
72883;DHT22;61017;37.812;-122.286;2023-02-23T06:05:32;13.10;60.70
72883;DHT22;61017;37.812;-122.286;2023-02-23T06:07:24;13.10;60.50
72883;DHT22;61017;37.812;-122.286;2023-02-23T06:09:15;13.10;60.60
72883;DHT22;61017;37.812;-122.286;2023-02-23T06:11:06;13.10;60.60
72883;DHT22;61017;37.812;-122.286;2023-02-23T06:12:58;13.10;60.90
72883;DHT22;61017;37.812;-122.286;2023-02-23T06:14:54;13.10;61.30
72883;DHT22;61017;37.812;-122.286;2023-02-23T06:16:46;13.10;60.50
72883;DHT22;61017;37.812;-122.286;2023-02-23T06:18:37;13.10;61.40
72883;DHT22;61017;37.812;-122.286;2023-02-23T06:20:28;13.10;60.90
72883;DHT22;61017;37.812;-122.286;2023-02-23T06:22:20;13.10;61.30
72883;DHT22;61017;37.812;-122.286;2023-02-23T06:24:11;13.10;61.30
72883;DHT22;61017;37.812;-122.286;2023-02-23T06:26:02;13.10;61.10
72883;DHT22;61017;37.812;-122.286;2023-02-23T06:27:54;13.10;60.80
72883;DHT22;61017;37.812;-122.286;2023-02-23T06:29:45;13.10;61.10
72883;DHT22;61017;37.812;-122.286;2023-02-23T06:31:37;13.10;61.10
72883;DHT22;61017;37.812;-122.286;2023-02-23T06:33:28;13.10;61.10
72883;DHT22;61017;37.812;-122.286;2023-02-23T06:35:20;13.10;61.20
72883;DHT22;61017;37.812;-122.286;2023-02-23T06:37:11;13.10;60.90
72883;DHT22;61017;37.812;-122.286;2023-02-23T06:39:03;13.10;61.10
72883;DHT22;61017;37.812;-122.286;2023-02-23T06:40:54;13.10;61.00
72883;DHT22;61017;37.812;-122.286;2023-02-23T06:42:45;13.10;61.00
72883;DHT22;61017;37.812;-122.286;2023-02-23T06:44:37;13.10;60.90
72883;DHT22;61017;37.812;-122.286;2023-02-23T06:46:28;13.10;60.80
72883;DHT22;61017;37.812;-122.286;2023-02-23T06:48:19;13.20;61.10
72883;DHT22;61017;37.812;-122.286;2023-02-23T06:50:11;13.10;60.90
72883;DHT22;61017;37.812;-122.286;2023-02-23T06:52:03;13.10;60.40
72883;DHT22;61017;37.812;-122.286;2023-02-23T06:53:54;13.10;60.20
72883;DHT22;61017;37.812;-122.286;2023-02-23T06:55:46;13.10;60.40
72883;DHT22;61017;37.812;-122.286;2023-02-23T06:57:40;13.10;60.30
72883;DHT22;61017;37.812;-122.286;2023-02-23T06:59:31;13.10;60.30
72883;DHT22;61017;37.812;-122.286;2023-02-23T07:01:23;13.10;60.60
72883;DHT22;61017;37.812;-122.286;2023-02-23T07:03:14;13.10;60.40
72883;DHT22;61017;37.812;-122.286;2023-02-23T07:05:05;13.10;61.10
72883;DHT22;61017;37.812;-122.286;2023-02-23T07:06:57;13.10;61.00
72883;DHT22;61017;37.812;-122.286;2023-02-23T07:08:48;13.10;61.30
72883;DHT22;61017;37.812;-122.286;2023-02-23T07:10:40;13.10;61.00
72883;DHT22;61017;37.812;-122.286;2023-02-23T07:12:31;13.10;61.20
72883;DHT22;61017;37.812;-122.286;2023-02-23T07:14:23;13.10;61.00
72883;DHT22;61017;37.812;-122.286;2023-02-23T07:16:14;13.10;60.30
72883;DHT22;61017;37.812;-122.286;2023-02-23T07:18:05;13.10;60.20
72883;DHT22;61017;37.812;-122.286;2023-02-23T07:19:57;13.10;60.00
72883;DHT22;61017;37.812;-122.286;2023-02-23T07:21:48;13.10;60.00
72883;DHT22;61017;37.812;-122.286;2023-02-23T07:23:39;13.10;60.30
72883;DHT22;61017;37.812;-122.286;2023-02-23T07:25:31;13.10;59.80
72883;DHT22;61017;37.812;-122.286;2023-02-23T07:27:22;13.10;59.60
72883;DHT22;61017;37.812;-122.286;2023-02-23T07:29:14;13.00;59.30
72883;DHT22;61017;37.812;-122.286;2023-02-23T07:31:05;13.00;59.40
72883;DHT22;61017;37.812;-122.286;2023-02-23T07:32:57;13.00;59.60
72883;DHT22;61017;37.812;-122.286;2023-02-23T07:34:48;13.00;59.50
72883;DHT22;61017;37.812;-122.286;2023-02-23T07:36:39;13.00;59.40
72883;DHT22;61017;37.812;-122.286;2023-02-23T07:38:34;13.00;59.20
72883;DHT22;61017;37.812;-122.286;2023-02-23T07:40:25;13.00;59.40
72883;DHT22;61017;37.812;-122.286;2023-02-23T07:42:16;13.00;59.80
72883;DHT22;61017;37.812;-122.286;2023-02-23T07:44:08;13.10;60.40
72883;DHT22;61017;37.812;-122.286;2023-02-23T07:46:00;13.10;60.00
72883;DHT22;61017;37.812;-122.286;2023-02-23T07:47:51;13.10;59.40
72883;DHT22;61017;37.812;-122.286;2023-02-23T07:49:46;13.00;59.20
72883;DHT22;61017;37.812;-122.286;2023-02-23T07:51:40;13.00;59.40
72883;DHT22;61017;37.812;-122.286;2023-02-23T07:53:31;13.00;59.50
72883;DHT22;61017;37.812;-122.286;2023-02-23T07:55:26;13.10;59.90
72883;DHT22;61017;37.812;-122.286;2023-02-23T07:57:17;13.10;60.00
72883;DHT22;61017;37.812;-122.286;2023-02-23T07:59:08;13.10;60.20
72883;DHT22;61017;37.812;-122.286;2023-02-23T08:01:03;13.10;60.20
72883;DHT22;61017;37.812;-122.286;2023-02-23T08:02:54;13.10;60.30
72883;DHT22;61017;37.812;-122.286;2023-02-23T08:04:46;13.10;60.30
72883;DHT22;61017;37.812;-122.286;2023-02-23T08:06:37;13.10;60.20
72883;DHT22;61017;37.812;-122.286;2023-02-23T08:08:28;13.10;60.40
72883;DHT22;61017;37.812;-122.286;2023-02-23T08:10:20;13.10;60.30
72883;DHT22;61017;37.812;-122.286;2023-02-23T08:12:11;13.10;60.30
72883;DHT22;61017;37.812;-122.286;2023-02-23T08:14:02;13.10;60.00
72883;DHT22;61017;37.812;-122.286;2023-02-23T08:15:54;13.10;60.30
72883;DHT22;61017;37.812;-122.286;2023-02-23T08:17:45;13.10;60.20
72883;DHT22;61017;37.812;-122.286;2023-02-23T08:19:36;13.10;60.30
72883;DHT22;61017;37.812;-122.286;2023-02-23T08:21:30;13.10;60.30
72883;DHT22;61017;37.812;-122.286;2023-02-23T08:23:21;13.10;60.30
72883;DHT22;61017;37.812;-122.286;2023-02-23T08:25:13;13.10;60.90
72883;DHT22;61017;37.812;-122.286;2023-02-23T08:27:06;13.10;60.10
72883;DHT22;61017;37.812;-122.286;2023-02-23T08:28:58;13.10;59.30
72883;DHT22;61017;37.812;-122.286;2023-02-23T08:30:51;13.10;59.90
72883;DHT22;61017;37.812;-122.286;2023-02-23T08:32:43;13.10;60.00
72883;DHT22;61017;37.812;-122.286;2023-02-23T08:34:38;13.10;60.00
72883;DHT22;61017;37.812;-122.286;2023-02-23T08:36:29;13.10;59.80
72883;DHT22;61017;37.812;-122.286;2023-02-23T08:38:21;13.10;60.00
72883;DHT22;61017;37.812;-122.286;2023-02-23T08:40:12;13.10;59.90
72883;DHT22;61017;37.812;-122.286;2023-02-23T08:42:06;13.10;59.80
72883;DHT22;61017;37.812;-122.286;2023-02-23T08:43:58;13.10;59.70
72883;DHT22;61017;37.812;-122.286;2023-02-23T08:45:49;13.10;59.70
72883;DHT22;61017;37.812;-122.286;2023-02-23T08:47:41;13.10;59.70
72883;DHT22;61017;37.812;-122.286;2023-02-23T08:49:32;13.10;59.90
72883;DHT22;61017;37.812;-122.286;2023-02-23T08:51:23;13.10;59.90
72883;DHT22;61017;37.812;-122.286;2023-02-23T08:53:15;13.10;59.80
72883;DHT22;61017;37.812;-122.286;2023-02-23T08:55:10;13.10;59.70
72883;DHT22;61017;37.812;-122.286;2023-02-23T08:57:01;13.10;60.00
72883;DHT22;61017;37.812;-122.286;2023-02-23T08:58:53;13.10;59.60
72883;DHT22;61017;37.812;-122.286;2023-02-23T09:00:44;13.10;59.80
72883;DHT22;61017;37.812;-122.286;2023-02-23T09:02:36;13.10;59.80
72883;DHT22;61017;37.812;-122.286;2023-02-23T09:04:30;13.10;59.70
72883;DHT22;61017;37.812;-122.286;2023-02-23T09:06:22;13.10;58.90
72883;DHT22;61017;37.812;-122.286;2023-02-23T09:08:14;13.10;59.60
72883;DHT22;61017;37.812;-122.286;2023-02-23T09:10:06;13.10;59.80
72883;DHT22;61017;37.812;-122.286;2023-02-23T09:11:57;13.10;59.70
72883;DHT22;61017;37.812;-122.286;2023-02-23T09:13:49;13.10;59.70
72883;DHT22;61017;37.812;-122.286;2023-02-23T09:15:41;13.10;59.50
72883;DHT22;61017;37.812;-122.286;2023-02-23T09:17:32;13.10;59.30
72883;DHT22;61017;37.812;-122.286;2023-02-23T09:19:24;13.10;59.60
72883;DHT22;61017;37.812;-122.286;2023-02-23T09:21:16;13.10;58.90
72883;DHT22;61017;37.812;-122.286;2023-02-23T09:23:07;13.00;59.10
72883;DHT22;61017;37.812;-122.286;2023-02-23T09:24:59;13.00;59.60
72883;DHT22;61017;37.812;-122.286;2023-02-23T09:26:50;13.00;59.60
72883;DHT22;61017;37.812;-122.286;2023-02-23T09:28:41;13.10;59.70
72883;DHT22;61017;37.812;-122.286;2023-02-23T09:30:33;13.10;59.70
72883;DHT22;61017;37.812;-122.286;2023-02-23T09:32:24;13.10;59.70
72883;DHT22;61017;37.812;-122.286;2023-02-23T09:34:15;13.10;59.60
72883;DHT22;61017;37.812;-122.286;2023-02-23T09:36:14;13.10;59.60
72883;DHT22;61017;37.812;-122.286;2023-02-23T09:38:05;13.10;59.70
72883;DHT22;61017;37.812;-122.286;2023-02-23T09:39:57;13.10;59.80
72883;DHT22;61017;37.812;-122.286;2023-02-23T09:44:31;13.10;59.90
72883;DHT22;61017;37.812;-122.286;2023-02-23T09:46:04;13.10;59.80
72883;DHT22;61017;37.812;-122.286;2023-02-23T09:48:04;13.10;59.90
72883;DHT22;61017;37.812;-122.286;2023-02-23T09:50:01;13.10;59.90
72883;DHT22;61017;37.812;-122.286;2023-02-23T09:51:54;13.10;59.80
72883;DHT22;61017;37.812;-122.286;2023-02-23T09:53:57;13.10;60.00
72883;DHT22;61017;37.812;-122.286;2023-02-23T09:55:50;13.10;60.00
72883;DHT22;61017;37.812;-122.286;2023-02-23T09:57:44;13.10;59.80
72883;DHT22;61017;37.812;-122.286;2023-02-23T09:59:38;13.10;59.90
72883;DHT22;61017;37.812;-122.286;2023-02-23T10:03:30;13.10;60.00
72883;DHT22;61017;37.812;-122.286;2023-02-23T10:05:23;13.10;60.20
72883;DHT22;61017;37.812;-122.286;2023-02-23T10:09:17;13.10;60.10
72883;DHT22;61017;37.812;-122.286;2023-02-23T10:11:16;13.10;60.20
72883;DHT22;61017;37.812;-122.286;2023-02-23T10:15:15;13.10;60.10
72883;DHT22;61017;37.812;-122.286;2023-02-23T10:17:57;13.10;60.10
72883;DHT22;61017;37.812;-122.286;2023-02-23T10:21:20;13.10;60.00
72883;DHT22;61017;37.812;-122.286;2023-02-23T10:23:18;13.10;60.10
72883;DHT22;61017;37.812;-122.286;2023-02-23T10:25:13;13.10;60.20
72883;DHT22;61017;37.812;-122.286;2023-02-23T10:27:13;13.10;60.10
72883;DHT22;61017;37.812;-122.286;2023-02-23T10:29:09;13.10;60.10
72883;DHT22;61017;37.812;-122.286;2023-02-23T10:33:33;13.10;60.20
72883;DHT22;61017;37.812;-122.286;2023-02-23T10:35:26;13.10;60.10
72883;DHT22;61017;37.812;-122.286;2023-02-23T10:37:18;13.10;60.30
72883;DHT22;61017;37.812;-122.286;2023-02-23T10:39:10;13.10;60.20
72883;DHT22;61017;37.812;-122.286;2023-02-23T10:41:02;13.10;60.20
72883;DHT22;61017;37.812;-122.286;2023-02-23T10:42:55;13.10;60.30
72883;DHT22;61017;37.812;-122.286;2023-02-23T10:44:47;13.10;61.00
72883;DHT22;61017;37.812;-122.286;2023-02-23T10:46:39;13.10;60.30
72883;DHT22;61017;37.812;-122.286;2023-02-23T10:48:35;13.10;60.30
72883;DHT22;61017;37.812;-122.286;2023-02-23T10:50:27;13.10;60.30
72883;DHT22;61017;37.812;-122.286;2023-02-23T10:52:28;13.10;60.20
72883;DHT22;61017;37.812;-122.286;2023-02-23T10:56:29;13.10;60.30
72883;DHT22;61017;37.812;-122.286;2023-02-23T10:58:20;13.10;60.30
72883;DHT22;61017;37.812;-122.286;2023-02-23T11:00:39;13.10;60.30
72883;DHT22;61017;37.812;-122.286;2023-02-23T11:02:30;13.10;60.40
72883;DHT22;61017;37.812;-122.286;2023-02-23T11:04:23;13.10;60.40
72883;DHT22;61017;37.812;-122.286;2023-02-23T11:06:29;13.10;60.30
72883;DHT22;61017;37.812;-122.286;2023-02-23T11:08:22;13.10;60.30
72883;DHT22;61017;37.812;-122.286;2023-02-23T11:10:25;13.10;60.40
72883;DHT22;61017;37.812;-122.286;2023-02-23T11:14:15;13.10;60.50
72883;DHT22;61017;37.812;-122.286;2023-02-23T11:17:58;13.10;60.60
72883;DHT22;61017;37.812;-122.286;2023-02-23T11:19:50;13.20;60.60
72883;DHT22;61017;37.812;-122.286;2023-02-23T11:21:50;13.10;60.50
72883;DHT22;61017;37.812;-122.286;2023-02-23T11:23:42;13.10;60.50
72883;DHT22;61017;37.812;-122.286;2023-02-23T11:25:33;13.10;60.30
72883;DHT22;61017;37.812;-122.286;2023-02-23T11:27:27;13.10;60.30
72883;DHT22;61017;37.812;-122.286;2023-02-23T11:31:14;13.10;60.40
72883;DHT22;61017;37.812;-122.286;2023-02-23T11:33:12;13.10;60.50
72883;DHT22;61017;37.812;-122.286;2023-02-23T11:39:06;13.10;60.60
72883;DHT22;61017;37.812;-122.286;2023-02-23T11:41:05;13.20;60.70
72883;DHT22;61017;37.812;-122.286;2023-02-23T11:44:49;13.20;60.80
72883;DHT22;61017;37.812;-122.286;2023-02-23T11:46:41;13.20;60.90
72883;DHT22;61017;37.812;-122.286;2023-02-23T11:50:33;13.20;60.60
72883;DHT22;61017;37.812;-122.286;2023-02-23T11:52:25;13.10;60.60
72883;DHT22;61017;37.812;-122.286;2023-02-23T11:54:26;13.10;60.90
72883;DHT22;61017;37.812;-122.286;2023-02-23T11:56:19;13.10;60.90
72883;DHT22;61017;37.812;-122.286;2023-02-23T11:58:19;13.10;60.70
72883;DHT22;61017;37.812;-122.286;2023-02-23T12:00:20;13.20;60.90
72883;DHT22;61017;37.812;-122.286;2023-02-23T12:04:03;13.10;60.60
72883;DHT22;61017;37.812;-122.286;2023-02-23T12:05:55;13.10;60.70
72883;DHT22;61017;37.812;-122.286;2023-02-23T12:09:45;13.10;60.70
72883;DHT22;61017;37.812;-122.286;2023-02-23T12:11:42;13.10;60.80
72883;DHT22;61017;37.812;-122.286;2023-02-23T12:13:42;13.10;61.00
72883;DHT22;61017;37.812;-122.286;2023-02-23T12:17:33;13.10;60.80
72883;DHT22;61017;37.812;-122.286;2023-02-23T12:21:20;13.10;61.10
72883;DHT22;61017;37.812;-122.286;2023-02-23T12:23:16;13.20;61.10
72883;DHT22;61017;37.812;-122.286;2023-02-23T12:27:21;13.20;61.10
72883;DHT22;61017;37.812;-122.286;2023-02-23T12:29:18;13.20;61.30
72883;DHT22;61017;37.812;-122.286;2023-02-23T12:33:15;13.20;61.00
72883;DHT22;61017;37.812;-122.286;2023-02-23T12:35:11;13.20;60.90
72883;DHT22;61017;37.812;-122.286;2023-02-23T12:37:08;13.10;60.80
72883;DHT22;61017;37.812;-122.286;2023-02-23T12:41:14;13.10;61.10
72883;DHT22;61017;37.812;-122.286;2023-02-23T12:44:58;13.10;61.00